L'enfant Terrible — FGA2169 — position and weather

sailwx.info

Track history (hours):
 
Tides and Currents Weather Stations Pressure Air Temp Water Temp Dewpoint Dewpoint Depression Visibility Wind Speed Wind Dir Waves Ship Positions

L'enfant Terrible

Last reported at 2017-Nov-19 21:34 UTC. Time now 2017-Nov-23 04:03 UTC.
Position N 43°54' W 001°34'.

Type: Fishing. MMSI: 227124200.

Date/timePositionNaut miles runAvg speedWind from/ knotsBaromVisibWave heightAir tempDewpointWater temp
2017-Nov-19 21:34N 43°54' W 001°34'1 7.1
2017-Nov-19 21:25N 43°55' W 001°34'10 7.6
2017-Nov-19 20:09N 44°05' W 001°31'4 7.7
2017-Nov-19 19:38N 44°08' W 001°30'2 7.6
2017-Nov-19 19:23N 44°10' W 001°29'3 7.9
2017-Nov-19 18:59N 44°13' W 001°29'22 7.7
2017-Nov-19 16:05N 44°35' W 001°23'1 7.7
2017-Nov-19 15:55N 44°37' W 001°23'  
2017-Nov-16 16:57N 44°46' W 001°16'1 2.3
2017-Nov-16 16:29N 44°45' W 001°16'1 0.1
2017-Nov-16 10:20N 44°46' W 001°17'0 1.2
2017-Nov-16 09:59N 44°45' W 001°17'1 0.1
2017-Nov-15 18:06N 44°46' W 001°16'1 7.7
2017-Nov-15 18:00N 44°45' W 001°16'1 1.4
2017-Nov-15 17:23N 44°46' W 001°16'0 0.8
2017-Nov-15 16:48N 44°46' W 001°17'3 6.5
2017-Nov-15 16:23N 44°44' W 001°17'3 7.1
2017-Nov-15 16:00N 44°41' W 001°18'4 7.1
2017-Nov-15 15:30N 44°37' W 001°18'3 7.0
2017-Nov-15 15:00N 44°34' W 001°18'7 7.1
2017-Nov-15 14:03N 44°27' W 001°19'0 7.3
2017-Nov-15 14:00N 44°27' W 001°19'4 7.2
2017-Nov-15 13:29N 44°23' W 001°20'3 7.2
2017-Nov-15 13:00N 44°20' W 001°20'3 5.2
2017-Nov-15 12:29N 44°17' W 001°21'1 1.7
2017-Nov-15 12:00N 44°18' W 001°21'3 2.2
2017-Nov-15 10:34N 44°21' W 001°20'0 1.4
2017-Nov-15 10:27N 44°21' W 001°20'1 2.2
2017-Nov-15 10:00N 44°20' W 001°20'  
Track history (hours):
 
Tides and Currents Weather Stations Pressure Air Temp Water Temp Dewpoint Dewpoint Depression Visibility Wind Speed Wind Dir Waves Ship Positions

L'enfant Terrible

Last reported at 2017-Nov-19 21:34 UTC. Time now 2017-Nov-23 04:03 UTC.
Position N 43°54' W 001°34'.

Type: Fishing. MMSI: 227124200.

Date/timePositionNaut miles runAvg speedWind from/ knotsBaromVisibWave heightAir tempDewpointWater temp
2017-Nov-19 21:34N 43°54' W 001°34'1 7.1
2017-Nov-19 21:25N 43°55' W 001°34'10 7.6
2017-Nov-19 20:09N 44°05' W 001°31'4 7.7
2017-Nov-19 19:38N 44°08' W 001°30'2 7.6
2017-Nov-19 19:23N 44°10' W 001°29'3 7.9
2017-Nov-19 18:59N 44°13' W 001°29'22 7.7
2017-Nov-19 16:05N 44°35' W 001°23'1 7.7
2017-Nov-19 15:55N 44°37' W 001°23'  
2017-Nov-16 16:57N 44°46' W 001°16'1 2.3
2017-Nov-16 16:29N 44°45' W 001°16'1 0.1
2017-Nov-16 10:20N 44°46' W 001°17'0 1.2
2017-Nov-16 09:59N 44°45' W 001°17'1 0.1
2017-Nov-15 18:06N 44°46' W 001°16'1 7.7
2017-Nov-15 18:00N 44°45' W 001°16'1 1.4
2017-Nov-15 17:23N 44°46' W 001°16'0 0.8
2017-Nov-15 16:48N 44°46' W 001°17'3 6.5
2017-Nov-15 16:23N 44°44' W 001°17'3 7.1
2017-Nov-15 16:00N 44°41' W 001°18'4 7.1
2017-Nov-15 15:30N 44°37' W 001°18'3 7.0
2017-Nov-15 15:00N 44°34' W 001°18'7 7.1
2017-Nov-15 14:03N 44°27' W 001°19'0 7.3
2017-Nov-15 14:00N 44°27' W 001°19'4 7.2
2017-Nov-15 13:29N 44°23' W 001°20'3 7.2
2017-Nov-15 13:00N 44°20' W 001°20'3 5.2
2017-Nov-15 12:29N 44°17' W 001°21'1 1.7
2017-Nov-15 12:00N 44°18' W 001°21'3 2.2
2017-Nov-15 10:34N 44°21' W 001°20'0 1.4
2017-Nov-15 10:27N 44°21' W 001°20'1 2.2
2017-Nov-15 10:00N 44°20' W 001°20'  

Dump ship's entire track history